Time;durP1;ratioP1;P1;durP2;ratioP2;P2;SDS_P1;SDS_P2;PMS_P1;PMS_P2;Temp;Humidity;BMP_temperature;BMP_pressure;BME280_temperature;BME280_humidity;BME280_pressure;Samples;Min_cycle;Max_cycle;Signal;HPM_P1;HPM_P2
2022/11/29 00:00:22;;;;;;;24.00;15.30;;;5.10;99.90;;;;;;4845734;29;20045;-72
2022/11/29 00:02:52;;;;;;;24.40;15.38;;;5.20;99.90;;;;;;4854971;29;20041;-72
2022/11/29 00:05:17;;;;;;;24.55;16.50;;;5.20;99.90;;;;;;4858642;29;20694;-73
2022/11/29 00:07:43;;;;;;;27.48;18.15;;;5.30;99.90;;;;;;4862049;29;20093;-73
2022/11/29 00:10:09;;;;;;;29.70;17.45;;;5.30;99.90;;;;;;4858702;29;20039;-72
2022/11/29 00:12:34;;;;;;;28.75;18.50;;;5.30;99.90;;;;;;4861044;29;20090;-72
2022/11/29 00:15:00;;;;;;;27.33;18.15;;;5.20;99.90;;;;;;4858861;29;20188;-72
2022/11/29 00:17:25;;;;;;;26.35;17.15;;;5.20;99.90;;;;;;4860385;29;20034;-73
2022/11/29 00:19:51;;;;;;;30.40;18.48;;;5.20;99.90;;;;;;4845461;29;20471;-73
2022/11/29 00:22:17;;;;;;;25.95;15.85;;;5.10;99.90;;;;;;4879265;29;20108;-73
2022/11/29 00:24:42;;;;;;;27.95;17.88;;;5.10;99.90;;;;;;4878328;29;20037;-73
2022/11/29 00:27:08;;;;;;;29.40;18.35;;;5.10;99.90;;;;;;4876460;29;20032;-73
2022/11/29 00:29:34;;;;;;;29.88;19.27;;;5.00;99.90;;;;;;4865101;29;20678;-73
2022/11/29 00:31:59;;;;;;;48.97;28.67;;;5.00;99.90;;;;;;4873854;29;20498;-72
2022/11/29 00:34:25;;;;;;;35.03;23.20;;;5.00;99.90;;;;;;4873564;29;21577;-73
2022/11/29 00:36:50;;;;;;;28.10;18.35;;;5.00;99.90;;;;;;4878916;29;20045;-73
2022/11/29 00:39:16;;;;;;;29.23;18.52;;;5.00;99.90;;;;;;4878194;29;20063;-73
2022/11/29 00:41:42;;;;;;;31.40;18.48;;;4.90;99.90;;;;;;4874357;29;20447;-74
2022/11/29 00:44:08;;;;;;;34.67;21.80;;;5.00;99.90;;;;;;4873440;29;21145;-73
2022/11/29 00:46:33;;;;;;;28.27;18.08;;;5.00;99.90;;;;;;4873559;29;20021;-73
2022/11/29 00:48:59;;;;;;;32.90;19.65;;;4.90;99.90;;;;;;4876378;29;20402;-74
2022/11/29 00:51:25;;;;;;;30.52;18.95;;;4.90;99.90;;;;;;4875242;29;20041;-73
2022/11/29 00:53:50;;;;;;;29.02;20.00;;;5.00;99.90;;;;;;4870711;29;20159;-73
2022/11/29 00:56:16;;;;;;;30.20;20.15;;;4.90;99.90;;;;;;4871384;29;20119;-73
2022/11/29 00:58:47;;;;;;;34.58;20.30;;;4.90;99.90;;;;;;4875712;29;20048;-74
2022/11/29 01:01:13;;;;;;;32.13;21.00;;;4.90;99.90;;;;;;4867089;29;20045;-74
2022/11/29 01:03:38;;;;;;;34.08;20.48;;;4.90;99.90;;;;;;4851894;29;20056;-74
2022/11/29 01:06:08;;;;;;;30.05;19.73;;;4.90;99.90;;;;;;4872164;29;20043;-74
2022/11/29 01:08:34;;;;;;;32.55;19.63;;;4.90;99.90;;;;;;4864944;29;20030;-74
2022/11/29 01:11:24;;;;;;;35.28;20.60;;;4.90;99.90;;;;;;4866476;29;20049;-74
2022/11/29 01:13:53;;;;;;;31.58;18.75;;;4.90;99.90;;;;;;4869429;29;20124;-74
2022/11/29 01:16:19;;;;;;;33.70;19.95;;;4.80;99.90;;;;;;4868437;29;20048;-74
2022/11/29 01:18:45;;;;;;;32.53;19.42;;;4.80;99.90;;;;;;4867242;29;20625;-74
2022/11/29 01:21:16;;;;;;;32.85;20.20;;;4.90;99.90;;;;;;4863885;29;20067;-76
2022/11/29 01:23:42;;;;;;;38.00;21.58;;;4.90;99.90;;;;;;4866652;29;20452;-75
2022/11/29 01:26:24;;;;;;;36.80;22.25;;;4.80;99.90;;;;;;4866860;29;20048;-75
2022/11/29 01:28:51;;;;;;;37.00;21.40;;;4.80;99.90;;;;;;4868907;29;20669;-73
2022/11/29 01:31:21;;;;;;;40.05;22.45;;;4.80;99.90;;;;;;4857103;29;20036;-74
2022/11/29 01:33:46;;;;;;;37.60;22.38;;;4.80;99.90;;;;;;4866746;29;20048;-75
2022/11/29 01:36:13;;;;;;;39.65;23.27;;;4.80;99.90;;;;;;4869089;29;20522;-74
2022/11/29 01:38:39;;;;;;;38.40;22.08;;;4.80;99.90;;;;;;4866160;29;21960;-75
2022/11/29 01:41:15;;;;;;;34.00;19.20;;;4.80;99.90;;;;;;4864385;29;20041;-76
2022/11/29 01:44:26;;;;;;;33.53;20.35;;;4.90;99.90;;;;;;4870927;29;20033;-76
2022/11/29 01:46:53;;;;;;;33.70;21.15;;;4.90;99.90;;;;;;4870881;29;20052;-76
2022/11/29 01:49:33;;;;;;;37.45;21.73;;;4.90;99.90;;;;;;4868544;29;20075;-76
2022/11/29 01:52:04;;;;;;;34.53;21.50;;;4.80;99.90;;;;;;4871132;29;20537;-74
2022/11/29 01:54:33;;;;;;;36.53;20.98;;;4.80;99.90;;;;;;4871594;29;20128;-75
2022/11/29 01:57:01;;;;;;;44.25;26.45;;;4.80;99.90;;;;;;4865223;29;20674;-75
2022/11/29 01:59:28;;;;;;;34.85;22.17;;;4.70;99.90;;;;;;4862279;29;20387;-75
2022/11/29 02:02:03;;;;;;;39.95;22.90;;;4.70;99.90;;;;;;4858087;29;20208;-75
2022/11/29 02:04:33;;;;;;;37.83;21.88;;;4.70;99.90;;;;;;4863623;29;20149;-76
2022/11/29 02:06:59;;;;;;;38.15;22.35;;;4.70;99.90;;;;;;4863377;29;20051;-76
2022/11/29 02:09:25;;;;;;;39.95;23.25;;;4.80;99.90;;;;;;4864937;29;20040;-76
2022/11/29 02:11:59;;;;;;;36.00;21.52;;;4.90;99.90;;;;;;4861582;29;20045;-76
2022/11/29 02:15:04;;;;;;;39.40;21.50;;;4.90;99.90;;;;;;4861892;29;20037;-76
2022/11/29 02:17:57;;;;;;;36.70;21.15;;;4.90;99.90;;;;;;4868557;29;20516;-76
2022/11/29 02:21:15;;;;;;;39.30;21.95;;;4.90;99.90;;;;;;4857595;29;20714;-75
2022/11/29 02:24:20;;;;;;;36.20;20.42;;;4.70;99.90;;;;;;4832603;29;20052;-75
2022/11/29 02:27:04;;;;;;;32.75;20.13;;;4.60;99.90;;;;;;4849503;29;20075;-75
2022/11/29 02:30:18;;;;;;;39.20;21.63;;;4.70;99.90;;;;;;4852400;29;20052;-75
2022/11/29 02:32:53;;;;;;;34.22;19.95;;;4.70;99.90;;;;;;4844558;29;20067;-75
2022/11/29 02:35:36;;;;;;;39.22;21.50;;;4.80;99.90;;;;;;4851290;29;20515;-75
2022/11/29 02:38:16;;;;;;;37.72;21.35;;;4.80;99.90;;;;;;4847201;29;20048;-75
2022/11/29 02:41:00;;;;;;;38.83;22.83;;;4.80;99.90;;;;;;4848312;29;20049;-75
2022/11/29 02:43:51;;;;;;;35.55;21.67;;;4.80;99.90;;;;;;4849959;29;20539;-75
2022/11/29 02:46:26;;;;;;;34.13;20.40;;;4.70;99.90;;;;;;4848054;29;20825;-75
2022/11/29 02:49:10;;;;;;;36.58;21.58;;;4.70;99.90;;;;;;4846174;29;20041;-75
2022/11/29 02:51:46;;;;;;;39.00;21.77;;;4.60;99.90;;;;;;4848281;29;20041;-75
2022/11/29 02:54:27;;;;;;;38.33;22.13;;;4.50;99.90;;;;;;4852645;29;20055;-75
2022/11/29 02:56:58;;;;;;;37.72;21.60;;;4.50;99.90;;;;;;4845685;29;20525;-75
2022/11/29 02:59:51;;;;;;;38.95;21.65;;;4.50;99.90;;;;;;4837784;29;20141;-75
2022/11/29 03:02:37;;;;;;;36.05;20.90;;;4.60;99.90;;;;;;4845071;29;20045;-75
2022/11/29 03:05:17;;;;;;;43.92;22.23;;;4.60;99.90;;;;;;4850227;29;20072;-76
2022/11/29 03:08:16;;;;;;;42.80;22.95;;;4.60;99.90;;;;;;4855040;29;20044;-75
2022/11/29 03:11:01;;;;;;;41.22;22.55;;;4.70;99.90;;;;;;4834024;29;20097;-75
2022/11/29 03:13:32;;;;;;;39.40;22.55;;;4.70;99.90;;;;;;4830259;29;20719;-75
2022/11/29 03:16:10;;;;;;;39.10;22.08;;;4.60;99.90;;;;;;4847084;29;22077;-75
2022/11/29 03:19:14;;;;;;;39.90;23.02;;;4.60;99.90;;;;;;4850277;29;20045;-75
2022/11/29 03:21:44;;;;;;;45.70;24.02;;;4.60;99.90;;;;;;4827877;29;22812;-75
2022/11/29 03:24:24;;;;;;;40.53;22.67;;;4.50;99.90;;;;;;4872708;29;20036;-75
2022/11/29 03:27:12;;;;;;;39.40;23.00;;;4.50;99.90;;;;;;4867114;29;20033;-75
2022/11/29 03:29:59;;;;;;;39.38;23.92;;;4.60;99.90;;;;;;4870080;29;20056;-75
2022/11/29 03:32:44;;;;;;;40.42;23.63;;;4.70;99.90;;;;;;4867877;29;20127;-75
2022/11/29 03:35:24;;;;;;;43.60;24.23;;;4.70;99.90;;;;;;4874018;29;20567;-75
2022/11/29 03:38:01;;;;;;;41.65;23.60;;;4.70;99.90;;;;;;4867926;29;20104;-75
2022/11/29 03:40:39;;;;;;;38.15;22.98;;;4.60;99.90;;;;;;4869339;29;20064;-75
2022/11/29 03:43:14;;;;;;;36.45;21.98;;;4.60;99.90;;;;;;4868070;29;20128;-76
2022/11/29 03:45:40;;;;;;;41.35;23.20;;;4.60;99.90;;;;;;4870176;29;20055;-75
2022/11/29 03:48:30;;;;;;;35.05;21.42;;;4.50;99.90;;;;;;4868761;29;20040;-75
2022/11/29 03:51:10;;;;;;;37.72;21.85;;;4.40;99.90;;;;;;4862509;29;20067;-75
2022/11/29 03:53:49;;;;;;;39.20;24.77;;;4.30;99.90;;;;;;4869974;29;20048;-75
2022/11/29 03:56:31;;;;;;;45.75;24.95;;;4.20;99.90;;;;;;4870315;29;20045;-75
2022/11/29 03:59:06;;;;;;;;;;;4.20;99.90;;;;;;4866354;29;20063;-75
2022/11/29 04:02:05;;;;;;;45.08;22.88;;;4.30;99.90;;;;;;4865391;29;19962;-75
2022/11/29 04:04:49;;;;;;;46.55;23.75;;;4.20;99.90;;;;;;4868761;29;20041;-75
2022/11/29 04:07:39;;;;;;;46.28;24.23;;;4.20;99.90;;;;;;4872842;29;20046;-75
2022/11/29 04:10:08;;;;;;;53.63;28.08;;;4.20;99.90;;;;;;4869735;29;20059;-75
2022/11/29 04:13:21;;;;;;;51.67;29.55;;;4.30;99.90;;;;;;4870672;29;20241;-75
2022/11/29 04:15:50;;;;;;;44.63;25.92;;;4.30;99.90;;;;;;4866089;29;20115;-75
2022/11/29 04:18:34;;;;;;;43.83;24.15;;;4.30;99.90;;;;;;4866685;29;20080;-75
2022/11/29 04:21:21;;;;;;;40.38;22.42;;;4.30;99.90;;;;;;4852962;29;20056;-75
2022/11/29 04:24:20;;;;;;;39.05;22.48;;;4.30;99.90;;;;;;4847287;29;20037;-76
2022/11/29 04:27:04;;;;;;;44.85;23.23;;;4.30;99.90;;;;;;4843091;29;20045;-75
2022/11/29 04:29:49;;;;;;;41.22;23.02;;;4.30;99.90;;;;;;4848892;29;20041;-75
2022/11/29 04:32:49;;;;;;;42.55;24.05;;;4.40;99.90;;;;;;4851929;29;20100;-75
2022/11/29 04:35:31;;;;;;;41.80;22.67;;;4.40;99.90;;;;;;4845665;29;20056;-75
2022/11/29 04:38:06;;;;;;;43.60;23.67;;;4.50;99.90;;;;;;4855566;29;20203;-75
2022/11/29 04:41:19;;;;;;;42.90;23.52;;;4.40;99.90;;;;;;4852779;29;20049;-75
2022/11/29 04:44:21;;;;;;;45.88;23.83;;;4.40;99.90;;;;;;4848012;29;20038;-75
2022/11/29 04:46:54;;;;;;;;;;;4.40;99.90;;;;;;4851845;29;20049;-75
2022/11/29 04:49:28;;;;;;;39.88;21.50;;;4.40;99.90;;;;;;4853223;29;19919;-75
2022/11/29 04:52:26;;;;;;;38.42;22.85;;;4.50;99.90;;;;;;4846484;29;20041;-75
2022/11/29 04:55:36;;;;;;;39.80;22.33;;;4.40;99.90;;;;;;4847853;29;20132;-76
2022/11/29 04:58:46;;;;;;;41.78;23.73;;;4.30;99.90;;;;;;4836723;29;20053;-75
2022/11/29 05:01:22;;;;;;;44.97;23.38;;;4.30;99.90;;;;;;4820187;29;20053;-75
2022/11/29 05:03:51;;;;;;;47.45;24.95;;;4.30;99.90;;;;;;4851257;29;20176;-76
2022/11/29 05:06:37;;;;;;;46.50;24.27;;;4.20;99.90;;;;;;4851232;29;20127;-75
2022/11/29 05:09:17;;;;;;;43.97;24.17;;;4.20;99.90;;;;;;4850747;29;20054;-75
2022/11/29 05:11:58;;;;;;;41.65;22.30;;;4.10;99.90;;;;;;4852757;29;20050;-75
2022/11/29 05:14:48;;;;;;;37.58;20.92;;;4.00;99.90;;;;;;4849212;29;20682;-75
2022/11/29 05:17:35;;;;;;;37.95;21.60;;;4.10;99.90;;;;;;4852160;29;20045;-75
2022/11/29 05:20:25;;;;;;;36.10;20.80;;;4.10;99.90;;;;;;4850788;29;21773;-75
2022/11/29 05:23:04;;;;;;;31.77;19.40;;;4.20;99.90;;;;;;4847332;29;20043;-75
2022/11/29 05:26:08;;;;;;;33.88;19.42;;;4.20;99.90;;;;;;4830601;29;20494;-75
2022/11/29 05:28:54;;;;;;;31.17;18.92;;;4.10;99.90;;;;;;4848741;29;20052;-75
2022/11/29 05:31:56;;;;;;;34.03;19.75;;;4.00;99.90;;;;;;4857276;29;20052;-75
2022/11/29 05:34:52;;;;;;;31.27;19.03;;;3.90;99.90;;;;;;4840759;29;20045;-75
2022/11/29 05:37:26;;;;;;;33.45;19.40;;;3.90;99.90;;;;;;4853681;29;20045;-74
2022/11/29 05:40:00;;;;;;;35.13;20.75;;;3.90;99.90;;;;;;4857187;29;20518;-77
2022/11/29 05:42:59;;;;;;;34.28;20.08;;;4.00;99.90;;;;;;4861252;29;20204;-77
2022/11/29 05:45:39;;;;;;;33.38;20.13;;;4.00;99.90;;;;;;4853957;29;20048;-76
2022/11/29 05:48:13;;;;;;;32.40;19.23;;;4.00;99.90;;;;;;4847953;29;20045;-76
2022/11/29 05:50:48;;;;;;;33.95;20.60;;;4.00;99.90;;;;;;4851256;29;20605;-76
2022/11/29 05:53:26;;;;;;;88.50;51.85;;;4.00;99.90;;;;;;4856166;29;20037;-76
2022/11/29 05:55:51;;;;;;;34.20;19.50;;;3.90;99.90;;;;;;4852845;29;20033;-72
2022/11/29 05:58:42;;;;;;;31.65;19.23;;;4.00;99.90;;;;;;4856889;29;20041;-74
2022/11/29 06:01:25;;;;;;;28.95;17.92;;;4.00;99.90;;;;;;4845285;29;20320;-72
2022/11/29 06:04:10;;;;;;;;;;;3.90;99.90;;;;;;4849356;29;20061;-73
2022/11/29 06:06:48;;;;;;;25.40;15.38;;;3.70;99.90;;;;;;4841391;29;19915;-72
2022/11/29 06:09:26;;;;;;;25.67;16.27;;;3.70;99.90;;;;;;4845532;29;20702;-72
2022/11/29 06:12:01;;;;;;;32.65;17.23;;;3.70;99.90;;;;;;4854038;29;20168;-72
2022/11/29 06:14:26;;;;;;;25.60;15.30;;;3.80;99.90;;;;;;4843495;29;20045;-71
2022/11/29 06:17:04;;;;;;;27.02;16.20;;;3.80;99.90;;;;;;4855946;29;20064;-72
2022/11/29 06:19:52;;;;;;;25.77;16.13;;;3.70;99.90;;;;;;4849902;29;20052;-71
2022/11/29 06:22:20;;;;;;;22.77;14.90;;;3.70;99.90;;;;;;4856423;29;20051;-72
2022/11/29 06:25:05;;;;;;;22.90;14.82;;;3.60;99.90;;;;;;4851130;29;20041;-70
2022/11/29 06:27:51;;;;;;;24.63;14.23;;;3.50;99.90;;;;;;4852378;29;20065;-72
2022/11/29 06:30:25;;;;;;;25.50;14.82;;;3.40;99.90;;;;;;4852166;29;20576;-72
2022/11/29 06:33:16;;;;;;;24.65;15.27;;;3.40;99.90;;;;;;4858461;29;20029;-72
2022/11/29 06:36:08;;;;;;;24.63;15.07;;;3.40;99.90;;;;;;4849968;29;20234;-72
2022/11/29 06:38:34;;;;;;;23.20;14.20;;;3.50;99.90;;;;;;4846069;29;20060;-72
2022/11/29 06:41:00;;;;;;;23.83;14.63;;;3.60;99.90;;;;;;4859316;29;20045;-72
2022/11/29 06:43:26;;;;;;;25.20;15.23;;;3.70;99.90;;;;;;4859061;29;20391;-72
2022/11/29 06:46:17;;;;;;;25.17;16.33;;;3.80;99.90;;;;;;4859906;29;20495;-72
2022/11/29 06:49:11;;;;;;;26.17;15.68;;;3.80;99.90;;;;;;4826216;29;20025;-72
2022/11/29 06:51:54;;;;;;;24.25;13.95;;;3.80;99.90;;;;;;4843273;29;20640;-72
2022/11/29 06:54:54;;;;;;;28.60;15.35;;;3.90;99.90;;;;;;4863275;29;20554;-73
2022/11/29 06:57:24;;;;;;;23.73;14.38;;;3.90;99.90;;;;;;4860347;29;20399;-72
2022/11/29 07:00:12;;;;;;;25.42;14.48;;;3.90;99.90;;;;;;4860678;29;20053;-72
2022/11/29 07:03:15;;;;;;;26.00;14.38;;;3.90;99.90;;;;;;4854789;29;20045;-72
2022/11/29 07:05:41;;;;;;;25.55;14.57;;;4.00;99.90;;;;;;4852521;29;20045;-72
2022/11/29 07:08:17;;;;;;;24.20;14.80;;;4.00;99.90;;;;;;4852955;29;20051;-72
2022/11/29 07:10:43;;;;;;;26.27;15.27;;;4.00;99.90;;;;;;4840962;29;20041;-73
2022/11/29 07:13:12;;;;;;;22.33;14.35;;;4.00;99.90;;;;;;4860100;29;20049;-72
2022/11/29 07:15:49;;;;;;;25.55;15.00;;;4.00;99.90;;;;;;4858189;29;20072;-72
2022/11/29 07:18:32;;;;;;;22.10;13.73;;;4.00;99.90;;;;;;4860699;29;20048;-73
2022/11/29 07:21:24;;;;;;;23.33;14.30;;;4.00;99.90;;;;;;4860040;29;20064;-72
2022/11/29 07:24:05;;;;;;;22.65;13.77;;;4.00;99.90;;;;;;4860157;29;20037;-72
2022/11/29 07:26:42;;;;;;;22.73;14.00;;;4.00;99.90;;;;;;4860350;29;20060;-72
2022/11/29 07:29:46;;;;;;;33.00;13.45;;;3.80;99.90;;;;;;4859076;29;20033;-72
2022/11/29 07:32:22;;;;;;;21.85;13.82;;;3.70;99.90;;;;;;4797893;29;20058;-72
2022/11/29 07:35:20;;;;;;;26.38;14.40;;;3.60;99.90;;;;;;4801858;29;20050;-72
2022/11/29 07:37:58;;;;;;;25.20;13.60;;;3.60;99.90;;;;;;4838596;29;20054;-72
2022/11/29 07:40:48;;;;;;;26.33;12.75;;;3.60;99.90;;;;;;4857403;29;20049;-72
2022/11/29 07:43:17;;;;;;;22.17;12.75;;;3.60;99.90;;;;;;4861029;29;20045;-72
2022/11/29 07:45:43;;;;;;;22.20;13.95;;;3.60;99.90;;;;;;4856790;29;20040;-72
2022/11/29 07:48:11;;;;;;;25.42;14.07;;;3.60;99.90;;;;;;4846551;29;20057;-72
2022/11/29 07:50:37;;;;;;;22.00;13.15;;;3.60;99.90;;;;;;4861218;29;20041;-72
2022/11/29 07:53:02;;;;;;;21.80;13.80;;;3.70;99.90;;;;;;4859436;29;20053;-72
2022/11/29 07:55:28;;;;;;;24.10;13.73;;;3.70;99.90;;;;;;4855121;29;20037;-72
2022/11/29 07:57:54;;;;;;;24.83;13.50;;;3.80;99.90;;;;;;4860531;29;20105;-73
2022/11/29 08:00:20;;;;;;;25.65;15.05;;;3.80;99.90;;;;;;4853850;29;20060;-72
2022/11/29 08:02:47;;;;;;;21.63;13.82;;;3.80;99.90;;;;;;4857914;29;20033;-72
2022/11/29 08:05:13;;;;;;;23.35;13.90;;;3.80;99.90;;;;;;4856149;29;20045;-72
2022/11/29 08:07:40;;;;;;;23.20;13.43;;;3.90;99.90;;;;;;4856708;29;20049;-72
2022/11/29 08:10:13;;;;;;;22.67;13.18;;;3.90;99.90;;;;;;4851774;29;20150;-72
2022/11/29 08:12:48;;;;;;;23.17;13.80;;;3.90;99.90;;;;;;4860649;29;20029;-72
2022/11/29 08:15:15;;;;;;;24.25;13.73;;;3.90;99.90;;;;;;4853842;29;20119;-72
2022/11/29 08:17:41;;;;;;;28.33;14.18;;;3.80;99.90;;;;;;4863211;29;20122;-72
2022/11/29 08:20:08;;;;;;;24.45;14.07;;;3.80;99.90;;;;;;4865902;29;20052;-72
2022/11/29 08:22:33;;;;;;;19.65;13.02;;;3.70;99.90;;;;;;4878174;29;20498;-73
2022/11/29 08:25:00;;;;;;;23.67;14.55;;;3.70;99.90;;;;;;4879935;29;20043;-73
2022/11/29 08:27:26;;;;;;;25.15;14.90;;;3.80;99.90;;;;;;4876570;29;20036;-73
2022/11/29 08:29:52;;;;;;;25.80;15.80;;;3.80;99.90;;;;;;4866700;29;20040;-73
2022/11/29 08:32:17;;;;;;;24.73;15.07;;;3.90;99.90;;;;;;4868483;29;20655;-73
2022/11/29 08:34:43;;;;;;;27.95;15.00;;;3.80;99.90;;;;;;4870506;29;20048;-73
2022/11/29 08:37:09;;;;;;;24.45;14.63;;;3.70;99.90;;;;;;4868433;29;20045;-73
2022/11/29 08:39:35;;;;;;;21.27;13.20;;;3.70;99.90;;;;;;4865837;29;20208;-73
2022/11/29 08:42:00;;;;;;;21.98;13.23;;;3.70;99.90;;;;;;4873164;29;20035;-73
2022/11/29 08:44:26;;;;;;;22.40;14.52;;;3.60;99.90;;;;;;4875822;29;20064;-73
2022/11/29 08:49:59;;;;;;;19.23;12.57;;;3.70;99.90;;;;;;4878418;29;20052;-73
2022/11/29 08:55:06;;;;;;;20.30;12.93;;;3.60;99.90;;;;;;4876361;29;20588;-73
2022/11/29 08:57:31;;;;;;;21.35;13.90;;;3.70;99.90;;;;;;4877298;29;20109;-73
2022/11/29 08:59:57;;;;;;;25.52;15.43;;;3.70;99.90;;;;;;4879425;29;20060;-72
2022/11/29 09:02:22;;;;;;;25.63;15.43;;;3.70;99.90;;;;;;4877018;29;20501;-73
2022/11/29 09:04:48;;;;;;;21.77;13.23;;;3.70;99.90;;;;;;4875440;29;20104;-73
2022/11/29 09:07:14;;;;;;;22.70;12.88;;;3.70;99.90;;;;;;4880694;29;20488;-73
2022/11/29 09:09:40;;;;;;;20.75;12.48;;;3.70;99.90;;;;;;4873954;29;20578;-72
2022/11/29 09:12:07;;;;;;;17.58;11.77;;;3.70;99.90;;;;;;4872662;29;20040;-74
2022/11/29 09:14:33;;;;;;;17.88;11.52;;;3.80;99.90;;;;;;4878583;29;20398;-72
2022/11/29 09:17:00;;;;;;;18.50;12.05;;;3.80;99.90;;;;;;4880225;29;20072;-72
2022/11/29 09:19:26;;;;;;;18.90;11.90;;;3.80;99.90;;;;;;4877387;29;20147;-72
2022/11/29 09:21:52;;;;;;;19.55;12.50;;;3.80;99.90;;;;;;4877420;29;20460;-73
2022/11/29 09:24:19;;;;;;;20.60;12.57;;;3.80;99.90;;;;;;4881907;29;20116;-73
2022/11/29 09:26:47;;;;;;;22.30;13.20;;;3.80;99.90;;;;;;4878249;29;20033;-72
2022/11/29 09:29:14;;;;;;;24.02;14.10;;;3.80;99.90;;;;;;4879589;29;20029;-73
2022/11/29 09:31:40;;;;;;;20.58;13.35;;;3.80;99.90;;;;;;4875680;29;20025;-73
2022/11/29 09:34:06;;;;;;;23.63;13.30;;;3.90;99.90;;;;;;4881624;29;20055;-73
2022/11/29 09:36:31;;;;;;;22.92;13.80;;;3.90;99.90;;;;;;4872424;29;20032;-72
2022/11/29 09:38:59;;;;;;;20.58;13.35;;;3.70;99.90;;;;;;4876813;29;20049;-73
2022/11/29 09:42:03;;;;;;;22.83;14.10;;;3.60;99.90;;;;;;4869702;29;20036;-73
2022/11/29 09:44:48;;;;;;;22.13;12.40;;;3.60;99.90;;;;;;4859884;29;20055;-73
2022/11/29 09:47:30;;;;;;;21.38;13.25;;;3.60;99.90;;;;;;4879119;29;22846;-73
2022/11/29 09:50:17;;;;;;;25.20;13.83;;;3.50;99.90;;;;;;4880283;29;20044;-72
2022/11/29 09:53:08;;;;;;;22.25;14.15;;;3.60;99.90;;;;;;4874123;29;20045;-73
2022/11/29 09:56:02;;;;;;;21.33;13.13;;;3.50;99.90;;;;;;4881389;29;21270;-72
2022/11/29 09:58:47;;;;;;;162.05;64.53;;;3.50;99.90;;;;;;4877254;29;20036;-73
2022/11/29 10:01:30;;;;;;;38.47;22.35;;;3.60;99.90;;;;;;4878410;29;20067;-73
2022/11/29 10:04:04;;;;;;;143.30;91.15;;;3.70;99.90;;;;;;4876442;29;20098;-72
2022/11/29 10:07:12;;;;;;;22.92;15.60;;;3.70;99.90;;;;;;4884040;29;20481;-72
2022/11/29 10:09:47;;;;;;;18.95;13.68;;;3.50;99.90;;;;;;4869840;29;20080;-72
2022/11/29 10:12:38;;;;;;;19.63;12.25;;;3.60;99.90;;;;;;4871004;29;20113;-72
2022/11/29 10:15:17;;;;;;;20.67;13.65;;;3.70;99.90;;;;;;4879804;29;20059;-72
2022/11/29 10:17:57;;;;;;;21.13;13.82;;;3.80;99.90;;;;;;4872655;29;20046;-72
2022/11/29 10:20:31;;;;;;;20.55;12.77;;;3.90;99.90;;;;;;4853821;29;22498;-73
2022/11/29 10:23:00;;;;;;;19.02;12.38;;;3.80;99.90;;;;;;4858411;29;20570;-73
2022/11/29 10:25:44;;;;;;;18.38;11.95;;;3.90;99.90;;;;;;4860533;29;20051;-73
2022/11/29 10:28:14;;;;;;;20.88;13.05;;;3.90;99.90;;;;;;4863247;29;22150;-72
2022/11/29 10:30:41;;;;;;;20.40;12.98;;;3.90;99.90;;;;;;4857388;29;20049;-72
2022/11/29 10:33:29;;;;;;;20.33;12.45;;;3.90;99.90;;;;;;4864372;29;20101;-72
2022/11/29 10:35:57;;;;;;;21.10;13.00;;;4.00;99.90;;;;;;4852339;29;20657;-72
2022/11/29 10:38:23;;;;;;;21.13;13.40;;;4.10;99.90;;;;;;4856904;29;20056;-72
2022/11/29 10:40:57;;;;;;;21.10;13.00;;;4.00;99.90;;;;;;4847511;29;20044;-72
2022/11/29 10:43:24;;;;;;;23.20;13.80;;;4.00;99.90;;;;;;4829062;29;20708;-72
2022/11/29 10:45:54;;;;;;;21.33;13.65;;;4.00;99.90;;;;;;4858242;29;20037;-72
2022/11/29 10:48:22;;;;;;;21.92;13.43;;;3.90;99.90;;;;;;4861534;29;20120;-74
2022/11/29 10:50:50;;;;;;;20.52;13.68;;;3.90;99.90;;;;;;4848659;29;20060;-72
2022/11/29 10:53:39;;;;;;;21.63;13.48;;;3.90;99.90;;;;;;4862856;29;20041;-72
2022/11/29 10:56:15;;;;;;;21.23;12.82;;;4.00;99.90;;;;;;4856164;29;20490;-72
2022/11/29 10:59:03;;;;;;;25.08;14.45;;;4.10;99.90;;;;;;4865559;29;20060;-72
2022/11/29 11:01:37;;;;;;;23.70;14.05;;;4.10;99.90;;;;;;4864055;29;20133;-72
2022/11/29 11:04:06;;;;;;;24.35;14.10;;;4.20;99.90;;;;;;4863765;29;20045;-72
2022/11/29 11:06:48;;;;;;;23.65;15.07;;;4.20;99.90;;;;;;4863823;29;20033;-72
2022/11/29 11:09:36;;;;;;;24.40;15.35;;;4.10;99.90;;;;;;4868993;29;20597;-73
2022/11/29 11:12:05;;;;;;;24.38;14.77;;;4.00;99.90;;;;;;4862274;29;20064;-73
2022/11/29 11:14:39;;;;;;;24.30;14.85;;;4.00;99.90;;;;;;4866841;29;20025;-73
2022/11/29 11:17:21;;;;;;;27.27;15.07;;;4.10;99.90;;;;;;4862765;29;20849;-73
2022/11/29 11:20:03;;;;;;;26.30;15.38;;;4.10;99.90;;;;;;4867968;29;21552;-73
2022/11/29 11:22:31;;;;;;;;;;;4.10;99.90;;;;;;4868549;29;20033;-73
2022/11/29 11:25:06;;;;;;;24.65;15.60;;;4.10;99.90;;;;;;4866708;29;19923;-73
2022/11/29 11:27:36;;;;;;;26.30;15.85;;;4.10;99.90;;;;;;4862249;29;20133;-73
2022/11/29 11:30:05;;;;;;;26.52;15.20;;;4.10;99.90;;;;;;4866598;29;20041;-73
2022/11/29 11:32:31;;;;;;;26.98;16.35;;;4.10;99.90;;;;;;4867322;29;20435;-73
2022/11/29 11:34:59;;;;;;;26.92;16.35;;;4.10;99.90;;;;;;4847659;29;20044;-73
2022/11/29 11:37:30;;;;;;;26.17;16.67;;;4.20;99.90;;;;;;4863699;29;20042;-73
2022/11/29 11:40:19;;;;;;;25.17;16.45;;;4.30;99.90;;;;;;4868204;29;20055;-73
2022/11/29 11:42:45;;;;;;;27.02;17.38;;;4.40;99.90;;;;;;4864026;29;20030;-73
2022/11/29 11:45:11;;;;;;;25.15;16.65;;;4.40;99.90;;;;;;4865334;29;20078;-73
2022/11/29 11:47:50;;;;;;;28.75;19.02;;;4.40;99.90;;;;;;4862402;29;20056;-73
2022/11/29 11:50:39;;;;;;;23.85;16.27;;;4.60;99.90;;;;;;4866306;29;20152;-74
2022/11/29 11:53:34;;;;;;;28.40;18.17;;;4.70;99.90;;;;;;4868287;29;20043;-74
2022/11/29 11:56:02;;;;;;;27.75;16.85;;;4.80;99.90;;;;;;4858918;29;20041;-73
2022/11/29 11:58:36;;;;;;;25.15;15.90;;;4.90;99.90;;;;;;4863933;29;20166;-73
2022/11/29 12:01:11;;;;;;;25.25;17.35;;;4.90;99.90;;;;;;4861720;29;20583;-74
2022/11/29 12:03:36;;;;;;;20.88;15.10;;;5.00;99.90;;;;;;4866192;29;20047;-73
2022/11/29 12:06:12;;;;;;;23.58;16.52;;;5.10;99.90;;;;;;4865339;29;20041;-73
2022/11/29 12:08:38;;;;;;;21.30;14.18;;;5.20;99.90;;;;;;4861224;29;20132;-73
2022/11/29 12:11:09;;;;;;;23.00;14.00;;;5.20;99.90;;;;;;4863731;29;20041;-73
2022/11/29 12:13:42;;;;;;;22.75;15.40;;;5.30;99.90;;;;;;4860543;29;20104;-74
2022/11/29 12:16:13;;;;;;;26.08;16.90;;;5.30;99.90;;;;;;4866259;29;20494;-73
2022/11/29 12:18:47;;;;;;;27.08;18.23;;;5.30;99.90;;;;;;4861666;29;20759;-74
2022/11/29 12:21:16;;;;;;;23.13;15.30;;;5.20;99.90;;;;;;4861715;29;20060;-74
2022/11/29 12:24:07;;;;;;;23.85;15.45;;;5.30;99.90;;;;;;4849531;29;20532;-73
2022/11/29 12:26:38;;;;;;;22.50;14.93;;;5.50;99.90;;;;;;4866032;29;21083;-74
2022/11/29 12:29:13;;;;;;;25.95;16.65;;;5.50;99.90;;;;;;4866035;29;20503;-74
2022/11/29 12:32:23;;;;;;;23.13;14.95;;;5.40;99.90;;;;;;4862235;29;20033;-74
2022/11/29 12:35:22;;;;;;;22.48;14.77;;;5.30;99.90;;;;;;4780799;29;20043;-74
2022/11/29 12:38:08;;;;;;;24.58;15.98;;;5.30;99.90;;;;;;4866594;29;20040;-73
2022/11/29 12:40:54;;;;;;;23.95;16.70;;;5.40;99.90;;;;;;4864353;29;20463;-73
2022/11/29 12:43:48;;;;;;;22.52;14.60;;;5.40;99.90;;;;;;4857874;29;20664;-73
2022/11/29 12:46:19;;;;;;;25.63;17.95;;;5.40;99.90;;;;;;4863734;29;20052;-73
2022/11/29 12:49:10;;;;;;;24.97;17.90;;;5.50;99.90;;;;;;4862900;29;20072;-74
2022/11/29 12:51:57;;;;;;;25.17;16.70;;;5.50;99.90;;;;;;4866728;29;20079;-73
2022/11/29 12:54:41;;;;;;;22.60;14.82;;;5.40;99.90;;;;;;4864964;29;20041;-73
2022/11/29 12:57:25;;;;;;;22.05;14.32;;;5.40;99.90;;;;;;4861991;29;20049;-73
2022/11/29 13:00:00;;;;;;;22.35;14.85;;;5.50;99.90;;;;;;4864132;29;20577;-73
2022/11/29 13:02:33;;;;;;;23.10;15.48;;;5.40;99.90;;;;;;4857010;29;20037;-73
2022/11/29 13:05:11;;;;;;;21.52;13.95;;;5.50;99.90;;;;;;4855959;29;20053;-74
2022/11/29 13:08:12;;;;;;;22.63;15.18;;;5.50;99.90;;;;;;4859009;29;20093;-74
2022/11/29 13:10:56;;;;;;;21.83;15.02;;;5.40;99.90;;;;;;4855288;29;20171;-74
2022/11/29 13:13:43;;;;;;;21.23;15.13;;;5.40;99.90;;;;;;4849265;29;20030;-73
2022/11/29 13:16:35;;;;;;;24.00;16.00;;;5.50;99.90;;;;;;4852266;29;20073;-72
2022/11/29 13:19:26;;;;;;;26.90;19.27;;;5.50;99.90;;;;;;4858911;29;20053;-71
2022/11/29 13:22:00;;;;;;;24.35;17.77;;;5.50;99.90;;;;;;4857735;29;20065;-72
2022/11/29 13:24:34;;;;;;;21.27;15.13;;;5.60;99.90;;;;;;4857050;29;20040;-72
2022/11/29 13:27:03;;;;;;;627.78;436.80;;;5.50;99.90;;;;;;4855701;29;20384;-71
2022/11/29 13:29:29;;;;;;;38.47;28.20;;;5.40;99.90;;;;;;4855733;29;20041;-71
2022/11/29 13:31:55;;;;;;;25.42;17.20;;;5.40;99.90;;;;;;4853268;29;20123;-72
2022/11/29 13:34:31;;;;;;;23.05;16.05;;;5.40;99.90;;;;;;4860967;29;20130;-72